EST,Max TemperatureF,Mean TemperatureF,Min TemperatureF,Max Dew PointF,MeanDew PointF,Min DewpointF,Max Humidity, Mean Humidity, Min Humidity, Max Sea Level PressureIn, Mean Sea Level PressureIn, Min Sea Level PressureIn, Max VisibilityMiles, Mean VisibilityMiles, Min VisibilityMiles, Max Wind SpeedMPH, Mean Wind SpeedMPH, Max Gust SpeedMPH,PrecipitationIn, CloudCover, Events, WindDirDegrees
2012-12-1,24,19,13,18,9,2,77,65,53,30.59,30.48,30.30,10,10,10,18,11,25,0.00,8,,73
2012-12-2,52,38,24,48,38,19,100,82,63,30.27,30.00,29.86,10,8,3,17,8,22,0.34,7,Rain,210
2012-12-3,49,42,34,46,35,32,89,81,73,30.28,30.20,29.95,10,10,7,16,5,21,0.00,8,,257
2012-12-4,67,50,32,55,46,31,96,77,58,30.18,29.95,29.83,10,8,2,23,9,30,0.51,5,Rain,209
2012-12-5,50,39,27,46,27,15,93,72,51,30.35,30.08,29.84,10,10,8,23,13,31,0.07,8,Rain-Snow,277
2012-12-6,33,25,17,22,17,14,84,67,49,30.45,30.33,30.14,10,10,10,10,5,15,0.00,2,,219
2012-12-7,44,35,26,34,27,22,85,69,53,30.10,30.03,29.99,10,10,9,12,2,14,T,4,Rain,219
2012-12-8,39,38,36,37,35,32,100,93,85,30.05,29.90,29.78,10,5,2,14,5,17,0.18,8,Rain,37
2012-12-9,36,31,26,33,24,19,92,84,75,30.40,30.23,30.00,10,8,1,23,10,28,0.08,8,Snow,41
2012-12-10,46,37,28,45,33,22,100,95,89,29.97,29.63,29.45,10,6,1,24,10,29,0.28,8,Rain-Snow,8
2012-12-11,30,21,11,23,13,9,92,80,67,30.24,30.00,29.70,10,10,10,18,6,23,0.00,4,,281
2012-12-12,38,24,10,32,22,8,92,76,59,30.42,30.32,30.25,10,9,4,20,4,25,T,5,Snow,233
2012-12-13,42,31,19,31,23,18,96,78,60,30.47,30.39,30.19,10,6,0,15,5,20,0.00,2,Fog,198
2012-12-14,41,33,25,31,26,19,76,65,54,30.33,30.17,30.10,10,10,10,16,10,22,0.00,6,,260
2012-12-15,25,21,16,18,12,7,81,68,55,30.46,30.38,30.27,10,10,10,21,10,25,0.00,2,,48
2012-12-16,32,25,17,30,19,8,92,80,67,30.27,30.03,29.89,10,9,3,23,14,31,T,7,Rain-Snow,66
2012-12-17,37,34,31,36,33,30,100,96,92,29.89,29.82,29.73,10,7,3,13,7,16,0.22,8,Rain,55
2012-12-18,37,35,33,36,33,32,100,96,92,29.71,29.58,29.48,10,5,2,23,10,28,0.59,8,Rain-Snow,21
2012-12-19,37,34,31,34,30,25,96,84,72,30.19,29.87,29.60,10,9,2,16,8,22,T,8,Snow,267
2012-12-20,34,28,21,31,24,18,89,73,56,30.27,30.06,29.73,10,9,4,17,8,22,0.17,4,Rain,78
2012-12-21,36,35,33,34,32,32,100,95,89,29.67,29.23,29.02,10,3,0,24,13,32,1.02,8,Fog-Rain-Snow,32
2012-12-22,34,27,19,32,20,12,96,84,71,29.83,29.40,29.05,10,3,0,28,18,39,0.01,8,Fog-Snow,259
2012-12-23,25,22,18,22,16,10,88,78,67,29.97,29.82,29.73,10,6,0,17,7,23,0.03,8,Fog-Snow,268
2012-12-24,24,14,3,15,11,4,92,80,67,30.12,30.07,29.97,10,10,10,16,5,21,0.00,4,,273
2012-12-25,21,13,4,14,10,3,92,77,62,30.43,30.22,30.06,10,10,10,12,5,13,0.00,5,,11
2012-12-26,17,8,-1,12,6,-4,91,83,74,30.46,30.31,30.05,10,8,1,23,8,32,T,3,Snow,43
2012-12-27,26,21,15,25,19,10,96,89,81,30.03,29.88,29.76,10,3,0,24,14,32,0.30,8,Fog-Snow,26
2012-12-28,25,12,-2,22,12,-3,95,81,67,30.14,30.06,29.94,10,10,5,16,7,21,T,4,,261
2012-12-29,17,7,-4,14,10,-6,100,90,80,30.09,29.88,29.73,9,3,0,14,6,16,0.02,8,Fog-Snow,24
2012-12-30,16,13,10,12,7,3,88,78,67,30.20,29.96,29.76,10,7,1,21,10,26,T,7,Snow,268
2012-12-31,34,24,14,28,22,9,92,82,72,30.14,29.89,29.69,10,7,2,23,9,28,0.02,8,Snow,223